| time (UTC) | temp C | wind direction | speed KPH | gust KPH | rain 1hr cm | rain 24hr cm | rain mn cm | humidity % | barometer mb |
| 20260509064313 | 12 | 280 | 3.2 | 6.4 | 0.00 | 0.15 | 0.15 | 95 | 1008.7 |
| 20260509063811 | 12 | 146 | 3.2 | 4.8 | 0.00 | 0.15 | 0.15 | 95 | 1008.6 |
| 20260509063306 | 12 | 232 | 6.4 | 9.7 | 0.00 | 0.15 | 0.15 | 95 | 1008.7 |
| 20260509062804 | 12 | 270 | 4.8 | 4.8 | 0.13 | 0.15 | 0.15 | 95 | 1008.9 |
| 20260509062301 | 12 | 286 | 1.6 | 1.6 | 0.13 | 0.15 | 0.15 | 95 | 1008.9 |
| 20260509061758 | 12 | 214 | 9.7 | 12.9 | 0.00 | 0.13 | 0.13 | 95 | 1009.1 |
| 20260509061256 | 12 | 265 | 11.3 | 12.9 | 0.18 | 0.13 | 0.13 | 94 | 1008.9 |
| 20260509060753 | 12 | 250 | 9.7 | 12.9 | 0.18 | 0.13 | 0.13 | 94 | 1009.2 |
| 20260509060250 | 12 | 230 | 6.4 | 6.4 | 0.00 | 0.10 | 0.10 | 94 | 1009.4 |
| 20260509055745 | 12 | 261 | 6.4 | 9.7 | 0.13 | 0.10 | 0.10 | 94 | 1009.3 |
| 20260509055241 | 13 | 180 | 4.8 | 6.4 | 0.43 | 0.10 | 0.10 | 93 | 1009.1 |
| 20260509054738 | 13 | 225 | 3.2 | 3.2 | 0.30 | 0.08 | 0.08 | 93 | 1009.5 |
| 20260509054235 | 13 | 291 | 6.4 | 9.7 | 0.00 | 0.03 | 0.03 | 92 | 1009.6 |
| 20260509053733 | 13 | 275 | 1.6 | 3.2 | 0.00 | 0.03 | 0.03 | 92 | 1009.4 |
| 20260509053230 | 13 | 252 | 6.4 | 6.4 | 0.00 | 0.03 | 0.03 | 92 | 1009.5 |
| 20260509052728 | 13 | 284 | 3.2 | 3.2 | 0.00 | 0.03 | 0.03 | 92 | 1009.6 |
| 20260509052225 | 13 | 258 | 4.8 | 6.4 | 0.00 | 0.03 | 0.03 | 92 | 1009.7 |
| 20260509051723 | 13 | 321 | 3.2 | 3.2 | 0.00 | 0.03 | 0.03 | 91 | 1009.6 |
| 20260509051220 | 13 | 267 | 3.2 | 4.8 | 0.00 | 0.03 | 0.03 | 91 | 1009.6 |
| 20260509050717 | 13 | 217 | 8.0 | 11.3 | 0.00 | 0.03 | 0.03 | 91 | 1009.6 |
| 20260509050213 | 13 | 292 | 4.8 | 6.4 | 0.00 | 0.03 | 0.03 | 91 | 1009.4 |
| 20260509045711 | 13 | 238 | 8.0 | 11.3 | 0.00 | 0.03 | 0.03 | 91 | 1009.5 |
| 20260509045208 | 13 | 231 | 11.3 | 14.5 | 0.00 | 0.03 | 0.03 | 91 | 1009.5 |
| 20260509044705 | 13 | 212 | 8.0 | 12.9 | 0.00 | 0.03 | 0.03 | 92 | 1009.5 |
| 20260509044203 | 13 | 314 | 1.6 | 1.6 | 0.18 | 0.03 | 0.03 | 92 | 1009.8 |
| 20260509043659 | 13 | 245 | 4.8 | 4.8 | 0.18 | 0.03 | 0.03 | 92 | 1009.8 |
| 20260509043155 | 13 | 221 | 12.9 | 16.1 | 0.18 | 0.03 | 0.03 | 92 | 1009.6 |
| 20260509042651 | 13 | 235 | 12.9 | 14.5 | 0.00 | 0.00 | 0.00 | 92 | 1009.4 |
| 20260509042147 | 13 | 297 | 4.8 | 4.8 | 0.00 | 0.00 | 0.00 | 92 | 1009.4 |
| 20260509041644 | 12 | 275 | 6.4 | 9.7 | 0.00 | 0.00 | 0.00 | 92 | 1009.6 |
| 20260509041141 | 12 | 223 | 14.5 | 16.1 | 0.00 | 0.00 | 0.00 | 92 | 1009.6 |
| 20260509040640 | 12 | 266 | 4.8 | 6.4 | 0.00 | 0.00 | 0.00 | 93 | 1009.5 |
| 20260509040137 | 12 | 277 | 4.8 | 4.8 | 0.00 | 0.00 | 0.00 | 93 | 1009.4 |
| 20260509035633 | 12 | 335 | 1.6 | 1.6 | 0.00 | 0.53 | 0.53 | 93 | 1009.4 |
| 20260509035130 | 12 | 300 | 3.2 | 3.2 | 0.00 | 0.53 | 0.53 | 93 | 1009.6 |
| 20260509034628 | 12 | 259 | 3.2 | 3.2 | 0.00 | 0.53 | 0.53 | 93 | 1009.5 |
| 20260509034125 | 12 | 310 | 1.6 | 3.2 | 0.00 | 0.53 | 0.53 | 93 | 1009.3 |
| 20260509033621 | 12 | 238 | 6.4 | 9.7 | 0.00 | 0.53 | 0.53 | 93 | 1009.5 |
| 20260509033118 | 13 | 155 | 4.8 | 6.4 | 0.00 | 0.53 | 0.53 | 93 | 1009.4 |
| 20260509032616 | 13 | 301 | 3.2 | 3.2 | 0.00 | 0.53 | 0.53 | 92 | 1009.5 |
| 20260509032113 | 13 | 218 | 6.4 | 9.7 | 0.00 | 0.53 | 0.53 | 92 | 1009.6 |
| 20260509031610 | 13 | 257 | 1.6 | 3.2 | 0.00 | 0.53 | 0.53 | 92 | 1009.5 |
| 20260509031108 | 13 | 294 | 3.2 | 3.2 | 0.00 | 0.53 | 0.53 | 92 | 1009.4 |
| 20260509030606 | 13 | 251 | 6.4 | 9.7 | 0.00 | 0.53 | 0.53 | 92 | 1009.5 |
| 20260509025558 | 13 | 250 | 6.4 | 6.4 | 0.00 | 0.53 | 0.53 | 92 | 1009.6 |
| 20260509025054 | 13 | 268 | 3.2 | 3.2 | 0.00 | 0.53 | 0.53 | 91 | 1009.7 |
| 20260509024550 | 13 | 244 | 6.4 | 6.4 | 0.00 | 0.53 | 0.53 | 91 | 1009.8 |
| 20260509024046 | 13 | 274 | 4.8 | 6.4 | 0.00 | 0.53 | 0.53 | 91 | 1009.8 |
| 20260509023544 | 13 | 245 | 3.2 | 4.8 | 0.00 | 0.53 | 0.53 | 90 | 1009.8 |
| 20260509023041 | 13 | 293 | 4.8 | 6.4 | 0.00 | 0.53 | 0.53 | 90 | 1009.9 |
| 20260509022537 | 13 | 282 | 4.8 | 6.4 | 0.00 | 0.53 | 0.53 | 90 | 1009.9 |
| 20260509022035 | 13 | 227 | 9.7 | 14.5 | 0.00 | 0.53 | 0.53 | 90 | 1009.8 |
| 20260509021532 | 13 | 267 | 6.4 | 6.4 | 0.00 | 0.53 | 0.53 | 91 | 1009.7 |
| 20260509021029 | 13 | 268 | 8.0 | 9.7 | 0.00 | 0.53 | 0.53 | 92 | 1009.8 |
| 20260509020527 | 13 | 285 | 8.0 | 11.3 | 0.00 | 0.53 | 0.53 | 93 | 1009.6 |
| 20260509020024 | 13 | 279 | 9.7 | 11.3 | 0.00 | 0.53 | 0.53 | 93 | 1009.6 |
| 20260509015523 | 13 | 244 | 4.8 | 4.8 | 0.00 | 0.53 | 0.53 | 94 | 1009.6 |
| 20260509015020 | 13 | 282 | 3.2 | 4.8 | 0.00 | 0.53 | 0.53 | 93 | 1009.5 |
| 20260509014516 | 13 | 250 | 8.0 | 11.3 | 0.00 | 0.53 | 0.53 | 94 | 1009.5 |
| 20260509014012 | 13 | 229 | 9.7 | 14.5 | 0.00 | 0.53 | 0.53 | 94 | 1009.7 |
| 20260509013509 | 13 | 291 | 6.4 | 9.7 | 0.00 | 0.53 | 0.53 | 94 | 1009.7 |
| 20260509013005 | 13 | 238 | 8.0 | 9.7 | 0.00 | 0.53 | 0.53 | 94 | 1009.5 |
| 20260509012502 | 13 | 249 | 4.8 | 4.8 | 0.13 | 0.53 | 0.53 | 94 | 1009.6 |
| 20260509011959 | 13 | 265 | 3.2 | 6.4 | 0.13 | 0.53 | 0.53 | 94 | 1009.5 |
| 20260509011457 | 13 | 308 | 6.4 | 11.3 | 0.00 | 0.51 | 0.51 | 94 | 1009.3 |
| 20260509010954 | 12 | 276 | 4.8 | 4.8 | 0.00 | 0.51 | 0.51 | 94 | 1009.5 |
| 20260509010452 | 13 | 231 | 6.4 | 9.7 | 0.00 | 0.51 | 0.51 | 94 | 1009.6 |
| 20260509005948 | 13 | 268 | 3.2 | 4.8 | 0.00 | 0.51 | 0.51 | 94 | 1009.7 |
| 20260509005446 | 13 | 271 | 3.2 | 3.2 | 0.00 | 0.51 | 0.51 | 94 | 1009.7 |
| 20260509004946 | 13 | 251 | 3.2 | 6.4 | 0.00 | 0.51 | 0.51 | 94 | 1009.6 |
| 20260509004443 | 13 | 243 | 6.4 | 9.7 | 0.00 | 0.51 | 0.51 | 94 | 1009.7 |
| 20260509003941 | 13 | 298 | 1.6 | 3.2 | 0.00 | 0.51 | 0.51 | 93 | 1009.5 |
| 20260509003438 | 13 | 241 | 6.4 | 6.4 | 0.00 | 0.51 | 0.51 | 93 | 1009.6 |
| 20260509002935 | 13 | 198 | 6.4 | 9.7 | 0.00 | 0.51 | 0.51 | 93 | 1009.6 |
| 20260509002433 | 13 | 271 | 6.4 | 9.7 | 0.00 | 0.51 | 0.51 | 93 | 1009.6 |
| 20260509001930 | 13 | 267 | 6.4 | 9.7 | 0.00 | 0.51 | 0.51 | 93 | 1009.7 |
| 20260509001426 | 13 | 219 | 6.4 | 9.7 | 0.00 | 0.51 | 0.51 | 93 | 1009.8 |
| 20260509000923 | 13 | 254 | 8.0 | 11.3 | 0.00 | 0.51 | 0.51 | 93 | 1009.7 |
| 20260509000422 | 13 | 222 | 4.8 | 4.8 | 0.18 | 0.51 | 0.51 | 93 | 1009.8 |
| 20260508235917 | 13 | 242 | 4.8 | 4.8 | 0.18 | 0.51 | 0.51 | 93 | 1010.0 |
| 20260508235415 | 13 | 235 | 8.0 | 14.5 | 0.00 | 0.48 | 0.48 | 93 | 1009.9 |
| 20260508234911 | 12 | 297 | 8.0 | 9.7 | 0.00 | 0.48 | 0.48 | 93 | 1010.0 |
| 20260508234408 | 12 | 308 | 1.6 | 1.6 | 0.00 | 0.48 | 0.48 | 93 | 1010.0 |
| 20260508233906 | 12 | 238 | 4.8 | 6.4 | 0.00 | 0.48 | 0.48 | 93 | 1009.9 |
| 20260508233406 | 12 | 280 | 6.4 | 6.4 | 0.00 | 0.48 | 0.48 | 93 | 1009.9 |
| 20260508232902 | 12 | 270 | 4.8 | 4.8 | 0.00 | 0.48 | 0.48 | 93 | 1009.9 |
| 20260508232358 | 12 | 278 | 1.6 | 3.2 | 0.13 | 0.48 | 0.48 | 93 | 1009.8 |
| 20260508231856 | 12 | 228 | 4.8 | 11.3 | 0.13 | 0.48 | 0.48 | 93 | 1010.1 |
| 20260508231353 | 13 | 248 | 3.2 | 9.7 | 0.18 | 0.46 | 0.46 | 93 | 1010.0 |
| 20260508230850 | 13 | 260 | 9.7 | 11.3 | 0.30 | 0.46 | 0.46 | 93 | 1010.0 |
| 20260508230346 | 13 | 236 | 9.7 | 12.9 | 0.13 | 0.43 | 0.43 | 93 | 1010.2 |
| 20260508225844 | 12 | 219 | 11.3 | 12.9 | 0.18 | 0.41 | 0.41 | 94 | 1010.1 |
| 20260508225340 | 12 | 201 | 3.2 | 3.2 | 0.18 | 0.41 | 0.41 | 93 | 1009.7 |
| 20260508224838 | 12 | 294 | 3.2 | 3.2 | 0.00 | 0.38 | 0.38 | 93 | 1009.8 |
| 20260508224335 | 12 | 318 | 1.6 | 1.6 | 0.18 | 0.38 | 0.38 | 93 | 1009.9 |
| 20260508223833 | 12 | 213 | 3.2 | 6.4 | 0.30 | 0.38 | 0.38 | 93 | 1010.1 |
| 20260508223330 | 12 | 305 | 1.6 | 1.6 | 0.30 | 0.36 | 0.36 | 93 | 1010.1 |
| 20260508222827 | 12 | 225 | 1.6 | 3.2 | 0.18 | 0.33 | 0.33 | 93 | 1010.3 |
| 20260508222324 | 12 | 296 | 0.0 | 1.6 | 0.13 | 0.30 | 0.30 | 92 | 1010.3 |
| 20260508221821 | 12 | 336 | 1.6 | 3.2 | 0.13 | 0.30 | 0.30 | 92 | 1010.2 |
| 20260508221316 | 12 | 278 | 3.2 | 4.8 | 0.18 | 0.28 | 0.28 | 91 | 1010.4 |
| 20260508220813 | 12 | 285 | 4.8 | 4.8 | 0.48 | 0.28 | 0.28 | 91 | 1010.4 |
| 20260508220310 | 12 | 299 | 1.6 | 1.6 | 0.61 | 0.25 | 0.25 | 91 | 1010.2 |
| 20260508215806 | 13 | 300 | 1.6 | 3.2 | 0.43 | 0.20 | 0.20 | 91 | 1010.6 |
| 20260508215306 | 13 | 307 | 3.2 | 4.8 | 0.30 | 0.15 | 0.15 | 90 | 1010.5 |
| 20260508214800 | 13 | 307 | 6.4 | 9.7 | 0.30 | 0.13 | 0.13 | 89 | 1010.5 |
| 20260508214257 | 13 | 288 | 3.2 | 3.2 | 0.13 | 0.10 | 0.10 | 89 | 1010.4 |
| 20260508213753 | 13 | 263 | 4.8 | 6.4 | 0.18 | 0.08 | 0.08 | 88 | 1010.4 |
| 20260508213250 | 13 | 305 | 3.2 | 4.8 | 0.18 | 0.08 | 0.08 | 87 | 1010.4 |
| 20260508212747 | 13 | 344 | 8.0 | 9.7 | 0.00 | 0.05 | 0.05 | 86 | 1010.3 |
| 20260508212243 | 13 | 358 | 6.4 | 6.4 | 0.00 | 0.05 | 0.05 | 86 | 1010.3 |
| 20260508211739 | 13 | 298 | 8.0 | 11.3 | 0.18 | 0.05 | 0.05 | 85 | 1010.5 |
| 20260508211235 | 13 | 344 | 8.0 | 9.7 | 0.18 | 0.05 | 0.05 | 84 | 1010.2 |
| 20260508210732 | 13 | 349 | 6.4 | 9.7 | 0.13 | 0.03 | 0.03 | 83 | 1010.4 |
| 20260508210229 | 14 | 290 | 11.3 | 16.1 | 0.13 | 0.03 | 0.03 | 81 | 1010.4 |
| 20260508205726 | 15 | 339 | 6.4 | 11.3 | 0.00 | 0.00 | 0.00 | 78 | 1010.3 |
| 20260508205223 | 16 | 352 | 6.4 | 6.4 | 0.00 | 0.00 | 0.00 | 72 | 1009.9 |
| 20260508204719 | 16 | 335 | 3.2 | 3.2 | 0.00 | 0.00 | 0.00 | 68 | 1010.0 |
| 20260508204215 | 17 | 318 | 1.6 | 3.2 | 0.00 | 0.00 | 0.00 | 64 | 1010.0 |
| 20260508203711 | 17 | 331 | 3.2 | 3.2 | 0.00 | 0.00 | 0.00 | 62 | 1009.7 |
| 20260508203208 | 17 | 295 | 3.2 | 4.8 | 0.00 | 0.00 | 0.00 | 59 | 1009.9 |
| 20260508202704 | 17 | 289 | 3.2 | 3.2 | 0.00 | 0.00 | 0.00 | 57 | 1010.0 |
| 20260508202201 | 17 | 285 | 3.2 | 4.8 | 0.00 | 0.00 | 0.00 | 57 | 1010.0 |
| 20260508201658 | 18 | 232 | 6.4 | 6.4 | 0.00 | 0.00 | 0.00 | 54 | 1010.1 |
| 20260508201154 | 18 | 315 | 1.6 | 1.6 | 0.00 | 0.00 | 0.00 | 52 | 1010.3 |
| 20260508200651 | 18 | 286 | 4.8 | 4.8 | 0.00 | 0.00 | 0.00 | 51 | 1010.2 |
| 20260508200147 | 18 | 311 | 1.6 | 1.6 | 0.00 | 0.00 | 0.00 | 54 | 1010.2 |
| 20260508195644 | 18 | 258 | 6.4 | 9.7 | 0.00 | 0.00 | 0.00 | 51 | 1010.4 |
| 20260508195141 | 18 | 243 | 11.3 | 11.3 | 0.00 | 0.00 | 0.00 | 50 | 1010.4 |
| 20260508194637 | 18 | 235 | 8.0 | 14.5 | 0.00 | 0.00 | 0.00 | 50 | 1010.6 |
| 20260508194134 | 18 | 274 | 4.8 | 4.8 | 0.00 | 0.00 | 0.00 | 50 | 1010.3 |
| 20260508193631 | 18 | 279 | 4.8 | 9.7 | 0.00 | 0.00 | 0.00 | 51 | 1010.5 |
| 20260508193128 | 17 | 267 | 6.4 | 6.4 | 0.00 | 0.00 | 0.00 | 51 | 1010.8 |
| 20260508192624 | 17 | 249 | 6.4 | 9.7 | 0.00 | 0.00 | 0.00 | 51 | 1010.6 |
| 20260508192122 | 17 | 297 | 9.7 | 12.9 | 0.00 | 0.00 | 0.00 | 51 | 1010.6 |
| 20260508191618 | 17 | 240 | 8.0 | 11.3 | 0.00 | 0.00 | 0.00 | 51 | 1010.9 |
| 20260508191115 | 17 | 169 | 8.0 | 12.9 | 0.00 | 0.00 | 0.00 | 51 | 1011.0 |
| 20260508190613 | 17 | 244 | 6.4 | 9.7 | 0.00 | 0.00 | 0.00 | 51 | 1011.2 |
| 20260508190109 | 17 | 257 | 3.2 | 3.2 | 0.00 | 0.00 | 0.00 | 51 | 1011.1 |
| 20260508185606 | 17 | 262 | 4.8 | 6.4 | 0.00 | 0.00 | 0.00 | 51 | 1011.3 |
| 20260508185103 | 17 | 232 | 9.7 | 11.3 | 0.00 | 0.00 | 0.00 | 51 | 1011.5 |
| 20260508184601 | 17 | 255 | 6.4 | 6.4 | 0.00 | 0.00 | 0.00 | 51 | 1011.2 |
| 20260508184057 | 17 | 246 | 8.0 | 12.9 | 0.00 | 0.00 | 0.00 | 50 | 1011.5 |
| 20260508183554 | 17 | 242 | 11.3 | 16.1 | 0.00 | 0.00 | 0.00 | 49 | 1011.4 |
| 20260508183050 | 17 | 278 | 4.8 | 4.8 | 0.00 | 0.00 | 0.00 | 50 | 1011.5 |
| 20260508182546 | 17 | 224 | 8.0 | 12.9 | 0.00 | 0.00 | 0.00 | 50 | 1011.6 |
| 20260508182043 | 17 | 290 | 4.8 | 6.4 | 0.00 | 0.00 | 0.00 | 49 | 1011.6 |
| 20260508181538 | 17 | 236 | 6.4 | 9.7 | 0.00 | 0.00 | 0.00 | 49 | 1011.5 |
| 20260508181036 | 17 | 228 | 12.9 | 16.1 | 0.00 | 0.00 | 0.00 | 49 | 1011.7 |
| 20260508180532 | 17 | 7 | 6.4 | 11.3 | 0.00 | 0.00 | 0.00 | 49 | 1011.5 |
| 20260508180029 | 17 | 248 | 11.3 | 17.7 | 0.00 | 0.00 | 0.00 | 48 | 1011.5 |
| 20260508175525 | 17 | 236 | 6.4 | 9.7 | 0.00 | 0.00 | 0.00 | 48 | 1011.7 |
| 20260508175023 | 17 | 211 | 9.7 | 14.5 | 0.00 | 0.00 | 0.00 | 47 | 1011.7 |
| 20260508174520 | 17 | 239 | 19.3 | 22.5 | 0.00 | 0.00 | 0.00 | 47 | 1011.7 |
| 20260508174017 | 18 | 350 | 14.5 | 16.1 | 0.00 | 0.00 | 0.00 | 46 | 1011.5 |
| 20260508173514 | 18 | 193 | 14.5 | 25.7 | 0.00 | 0.00 | 0.00 | 44 | 1011.7 |
| 20260508173010 | 19 | 223 | 12.9 | 16.1 | 0.00 | 0.00 | 0.00 | 43 | 1011.5 |
| 20260508172507 | 19 | 159 | 14.5 | 20.9 | 0.00 | 0.00 | 0.00 | 43 | 1011.6 |
| 20260508172004 | 19 | 235 | 9.7 | 14.5 | 0.00 | 0.00 | 0.00 | 43 | 1011.4 |
| 20260508171500 | 19 | 263 | 9.7 | 14.5 | 0.00 | 0.00 | 0.00 | 43 | 1011.7 |
| 20260508170957 | 19 | 299 | 17.7 | 22.5 | 0.00 | 0.00 | 0.00 | 42 | 1011.7 |
| 20260508170454 | 20 | 263 | 20.9 | 29.0 | 0.00 | 0.00 | 0.00 | 41 | 1012.1 |
| 20260508165951 | 20 | 233 | 17.7 | 24.1 | 0.00 | 0.00 | 0.00 | 41 | 1012.2 |
| 20260508165449 | 20 | 113 | 3.2 | 4.8 | 0.00 | 0.00 | 0.00 | 44 | 1012.1 |
| 20260508164944 | 20 | 248 | 8.0 | 9.7 | 0.00 | 0.00 | 0.00 | 43 | 1012.3 |
| 20260508164442 | 21 | 276 | 12.9 | 16.1 | 0.00 | 0.00 | 0.00 | 41 | 1012.5 |
| 20260508163939 | 20 | 87 | 6.4 | 11.3 | 0.00 | 0.00 | 0.00 | 43 | 1012.3 |
| 20260508163437 | 20 | 251 | 16.1 | 20.9 | 0.00 | 0.00 | 0.00 | 41 | 1012.4 |
| 20260508162932 | 20 | 228 | 17.7 | 24.1 | 0.00 | 0.00 | 0.00 | 42 | 1012.5 |
| 20260508162430 | 20 | 277 | 16.1 | 20.9 | 0.00 | 0.00 | 0.00 | 43 | 1012.6 |
| 20260508161926 | 19 | 230 | 9.7 | 11.3 | 0.00 | 0.00 | 0.00 | 44 | 1012.8 |
| 20260508161423 | 18 | 306 | 6.4 | 6.4 | 0.00 | 0.00 | 0.00 | 45 | 1012.9 |
| 20260508160921 | 18 | 216 | 9.7 | 14.5 | 0.00 | 0.00 | 0.00 | 46 | 1012.8 |
| 20260508160420 | 17 | 296 | 9.7 | 11.3 | 0.00 | 0.00 | 0.00 | 47 | 1013.0 |
| 20260508155915 | 17 | 330 | 8.0 | 9.7 | 0.00 | 0.00 | 0.00 | 47 | 1013.2 |
| 20260508155413 | 17 | 187 | 4.8 | 6.4 | 0.00 | 0.00 | 0.00 | 45 | 1013.1 |
| 20260508154909 | 18 | 321 | 11.3 | 14.5 | 0.00 | 0.00 | 0.00 | 46 | 1013.0 |
| 20260508154407 | 18 | 256 | 12.9 | 14.5 | 0.00 | 0.00 | 0.00 | 45 | 1012.8 |
| 20260508153904 | 17 | 276 | 8.0 | 12.9 | 0.00 | 0.00 | 0.00 | 45 | 1012.9 |
| 20260508153401 | 17 | 276 | 6.4 | 6.4 | 0.00 | 0.00 | 0.00 | 47 | 1013.0 |
| 20260508152856 | 17 | 233 | 9.7 | 11.3 | 0.00 | 0.00 | 0.00 | 46 | 1013.3 |
| 20260508152353 | 17 | 255 | 6.4 | 9.7 | 0.00 | 0.00 | 0.00 | 46 | 1013.1 |
| 20260508151849 | 17 | 251 | 14.5 | 16.1 | 0.00 | 0.00 | 0.00 | 44 | 1013.3 |
| 20260508151347 | 17 | 267 | 9.7 | 14.5 | 0.00 | 0.00 | 0.00 | 45 | 1013.2 |
| 20260508150843 | 17 | 254 | 3.2 | 4.8 | 0.00 | 0.00 | 0.00 | 47 | 1013.0 |
| 20260508150340 | 17 | 195 | 3.2 | 4.8 | 0.00 | 0.00 | 0.00 | 47 | 1013.1 |
| 20260508145836 | 17 | 265 | 8.0 | 9.7 | 0.00 | 0.00 | 0.00 | 47 | 1013.3 |
| 20260508145332 | 17 | 237 | 14.5 | 17.7 | 0.00 | 0.00 | 0.00 | 46 | 1013.2 |
| 20260508144829 | 16 | 222 | 6.4 | 9.7 | 0.00 | 0.00 | 0.00 | 48 | 1013.4 |
| 20260508144327 | 16 | 244 | 9.7 | 12.9 | 0.00 | 0.00 | 0.00 | 48 | 1013.5 |
| 20260508143824 | 16 | 234 | 9.7 | 12.9 | 0.00 | 0.00 | 0.00 | 48 | 1013.4 |
| 20260508143321 | 16 | 276 | 14.5 | 22.5 | 0.00 | 0.00 | 0.00 | 48 | 1013.6 |
| 20260508142818 | 16 | 239 | 6.4 | 6.4 | 0.00 | 0.00 | 0.00 | 49 | 1013.6 |
| 20260508142315 | 15 | 244 | 11.3 | 17.7 | 0.00 | 0.00 | 0.00 | 50 | 1013.6 |
| 20260508141811 | 16 | 293 | 9.7 | 14.5 | 0.00 | 0.00 | 0.00 | 48 | 1013.5 |
| 20260508141308 | 15 | 318 | 3.2 | 3.2 | 0.00 | 0.00 | 0.00 | 49 | 1013.6 |
| 20260508140806 | 15 | 212 | 6.4 | 6.4 | 0.00 | 0.00 | 0.00 | 50 | 1013.6 |
| 20260508140303 | 15 | 252 | 9.7 | 12.9 | 0.00 | 0.00 | 0.00 | 50 | 1013.5 |
| 20260508135758 | 15 | 206 | 19.3 | 24.1 | 0.00 | 0.00 | 0.00 | 49 | 1013.8 |
| 20260508135255 | 15 | 243 | 19.3 | 25.7 | 0.00 | 0.00 | 0.00 | 49 | 1013.9 |
| 20260508134750 | 15 | 206 | 8.0 | 12.9 | 0.00 | 0.00 | 0.00 | 50 | 1013.8 |
| 20260508134248 | 15 | 264 | 14.5 | 20.9 | 0.00 | 0.00 | 0.00 | 49 | 1013.8 |
| 20260508133744 | 15 | 221 | 11.3 | 14.5 | 0.00 | 0.00 | 0.00 | 50 | 1013.8 |
| 20260508133242 | 15 | 267 | 4.8 | 6.4 | 0.00 | 0.00 | 0.00 | 51 | 1013.9 |
| 20260508132740 | 14 | 240 | 12.9 | 16.1 | 0.00 | 0.00 | 0.00 | 50 | 1013.8 |
| 20260508132237 | 14 | 286 | 3.2 | 4.8 | 0.00 | 0.00 | 0.00 | 52 | 1013.8 |
| 20260508131732 | 13 | 281 | 3.2 | 6.4 | 0.00 | 0.00 | 0.00 | 53 | 1014.0 |
| 20260508131229 | 13 | 249 | 6.4 | 6.4 | 0.00 | 0.00 | 0.00 | 53 | 1013.8 |
| 20260508130725 | 13 | 229 | 8.0 | 11.3 | 0.00 | 0.00 | 0.00 | 53 | 1013.9 |
| 20260508130223 | 13 | 212 | 8.0 | 9.7 | 0.00 | 0.00 | 0.00 | 53 | 1013.7 |
| 20260508125718 | 13 | 250 | 6.4 | 6.4 | 0.00 | 0.00 | 0.00 | 53 | 1014.2 |
| 20260508125215 | 12 | 323 | 1.6 | 1.6 | 0.00 | 0.00 | 0.00 | 55 | 1014.1 |
| 20260508124713 | 12 | 276 | 3.2 | 4.8 | 0.00 | 0.00 | 0.00 | 53 | 1014.3 |
| 20260508124210 | 13 | 249 | 4.8 | 4.8 | 0.00 | 0.00 | 0.00 | 53 | 1014.0 |
| 20260508123708 | 13 | 241 | 3.2 | 3.2 | 0.00 | 0.00 | 0.00 | 52 | 1014.3 |
| 20260508123206 | 13 | 210 | 3.2 | 3.2 | 0.00 | 0.00 | 0.00 | 53 | 1014.3 |
| 20260508122702 | 13 | 327 | 0.0 | 1.6 | 0.00 | 0.00 | 0.00 | 52 | 1013.9 |
| 20260508122159 | 12 | 304 | 1.6 | 1.6 | 0.00 | 0.00 | 0.00 | 52 | 1014.2 |
| 20260508121657 | 12 | 230 | 1.6 | 1.6 | 0.00 | 0.00 | 0.00 | 54 | 1014.0 |
| 20260508121155 | 11 | 38 | 0.0 | 0.0 | 0.00 | 0.00 | 0.00 | 57 | 1014.2 |
| 20260508120652 | 11 | 338 | 0.0 | 0.0 | 0.00 | 0.00 | 0.00 | 57 | 1014.2 |
| 20260508120150 | 11 | 337 | 0.0 | 0.0 | 0.00 | 0.00 | 0.00 | 58 | 1014.0 |
| 20260508115648 | 11 | 330 | 0.0 | 0.0 | 0.00 | 0.00 | 0.00 | 59 | 1014.1 |
| 20260508115144 | 10 | 38 | 0.0 | 0.0 | 0.00 | 0.00 | 0.00 | 63 | 1013.9 |
| 20260508114641 | 10 | 349 | 0.0 | 1.6 | 0.00 | 0.00 | 0.00 | 64 | 1014.1 |
| 20260508114137 | 10 | 349 | 1.6 | 1.6 | 0.00 | 0.00 | 0.00 | 62 | 1014.0 |
| 20260508113635 | 10 | 51 | 0.0 | 1.6 | 0.00 | 0.00 | 0.00 | 63 | 1014.0 |
| 20260508113133 | 10 | 311 | 0.0 | 0.0 | 0.00 | 0.00 | 0.00 | 62 | 1013.9 |
| 20260508112628 | 10 | 271 | 1.6 | 1.6 | 0.00 | 0.00 | 0.00 | 62 | 1013.9 |
| 20260508112126 | 10 | 313 | 0.0 | 1.6 | 0.00 | 0.00 | 0.00 | 61 | 1014.1 |
| 20260508111622 | 10 | 339 | 1.6 | 1.6 | 0.00 | 0.00 | 0.00 | 60 | 1013.9 |
| 20260508111120 | 10 | 313 | 3.2 | 4.8 | 0.00 | 0.00 | 0.00 | 60 | 1013.9 |
| 20260508110618 | 10 | 279 | 1.6 | 1.6 | 0.00 | 0.00 | 0.00 | 60 | 1013.9 |
| 20260508110113 | 10 | 308 | 1.6 | 1.6 | 0.00 | 0.00 | 0.00 | 60 | 1013.8 |
| 20260508105608 | 10 | 322 | 4.8 | 4.8 | 0.00 | 0.00 | 0.00 | 59 | 1013.9 |
| 20260508105105 | 10 | 298 | 1.6 | 1.6 | 0.00 | 0.00 | 0.00 | 59 | 1013.7 |
| 20260508104603 | 10 | 290 | 3.2 | 4.8 | 0.00 | 0.00 | 0.00 | 60 | 1013.8 |
| 20260508104059 | 10 | 5 | 4.8 | 6.4 | 0.00 | 0.00 | 0.00 | 58 | 1013.8 |
| 20260508103556 | 10 | 303 | 8.0 | 11.3 | 0.00 | 0.00 | 0.00 | 56 | 1013.7 |
| 20260508103054 | 10 | 216 | 4.8 | 6.4 | 0.00 | 0.00 | 0.00 | 55 | 1013.3 |
| 20260508102551 | 11 | 246 | 6.4 | 9.7 | 0.00 | 0.00 | 0.00 | 55 | 1013.3 |
| 20260508102049 | 10 | 224 | 6.4 | 11.3 | 0.00 | 0.00 | 0.00 | 55 | 1013.3 |
| 20260508101546 | 10 | 254 | 11.3 | 16.1 | 0.00 | 0.00 | 0.00 | 55 | 1013.3 |
| 20260508101043 | 11 | 325 | 3.2 | 3.2 | 0.00 | 0.00 | 0.00 | 55 | 1013.0 |
| 20260508100541 | 11 | 215 | 9.7 | 14.5 | 0.00 | 0.00 | 0.00 | 55 | 1013.2 |
| 20260508100038 | 11 | 245 | 6.4 | 9.7 | 0.00 | 0.00 | 0.00 | 55 | 1013.2 |
| 20260508095535 | 11 | 307 | 4.8 | 6.4 | 0.00 | 0.00 | 0.00 | 55 | 1013.1 |
| 20260508095032 | 11 | 242 | 4.8 | 4.8 | 0.00 | 0.00 | 0.00 | 55 | 1013.2 |
| 20260508094529 | 11 | 251 | 8.0 | 11.3 | 0.00 | 0.00 | 0.00 | 55 | 1013.3 |
| 20260508094026 | 11 | 258 | 4.8 | 6.4 | 0.00 | 0.00 | 0.00 | 56 | 1013.4 |
| 20260508093522 | 11 | 254 | 6.4 | 6.4 | 0.00 | 0.00 | 0.00 | 55 | 1013.3 |
| 20260508093021 | 11 | 254 | 9.7 | 14.5 | 0.00 | 0.00 | 0.00 | 54 | 1013.3 |
| 20260508092517 | 11 | 356 | 1.6 | 3.2 | 0.00 | 0.00 | 0.00 | 54 | 1013.3 |
| 20260508092017 | 11 | 251 | 4.8 | 6.4 | 0.00 | 0.00 | 0.00 | 54 | 1013.3 |
| 20260508091513 | 11 | 279 | 6.4 | 6.4 | 0.00 | 0.00 | 0.00 | 52 | 1013.3 |
| 20260508091010 | 11 | 231 | 1.6 | 3.2 | 0.00 | 0.00 | 0.00 | 53 | 1013.5 |
| 20260508090508 | 11 | 235 | 6.4 | 9.7 | 0.00 | 0.00 | 0.00 | 52 | 1013.3 |
| 20260508090004 | 12 | 268 | 3.2 | 3.2 | 0.00 | 0.00 | 0.00 | 52 | 1013.4 |
| 20260508085501 | 12 | 257 | 6.4 | 9.7 | 0.00 | 0.00 | 0.00 | 52 | 1013.5 |
| 20260508084958 | 11 | 210 | 3.2 | 4.8 | 0.00 | 0.00 | 0.00 | 52 | 1013.5 |
| 20260508084454 | 12 | 216 | 6.4 | 6.4 | 0.00 | 0.00 | 0.00 | 52 | 1013.5 |
| 20260508083953 | 11 | 259 | 6.4 | 9.7 | 0.00 | 0.00 | 0.00 | 53 | 1013.5 |
| 20260508083449 | 11 | 245 | 9.7 | 12.9 | 0.00 | 0.00 | 0.00 | 54 | 1013.7 |
| 20260508082944 | 11 | 273 | 4.8 | 6.4 | 0.00 | 0.00 | 0.00 | 55 | 1013.7 |
| 20260508082441 | 11 | 311 | 1.6 | 3.2 | 0.00 | 0.00 | 0.00 | 56 | 1013.9 |
| 20260508081939 | 11 | 274 | 6.4 | 9.7 | 0.00 | 0.00 | 0.00 | 56 | 1013.8 |
| 20260508081436 | 11 | 313 | 1.6 | 1.6 | 0.00 | 0.00 | 0.00 | 57 | 1013.8 |
| 20260508080932 | 11 | 280 | 3.2 | 3.2 | 0.00 | 0.00 | 0.00 | 56 | 1014.0 |
| 20260508080431 | 11 | 272 | 1.6 | 3.2 | 0.00 | 0.00 | 0.00 | 56 | 1014.2 |
| 20260508075927 | 12 | 299 | 4.8 | 4.8 | 0.00 | 0.00 | 0.00 | 54 | 1014.1 |
| 20260508075424 | 12 | 333 | 3.2 | 3.2 | 0.00 | 0.00 | 0.00 | 54 | 1014.2 |
| 20260508074922 | 12 | 238 | 4.8 | 6.4 | 0.00 | 0.00 | 0.00 | 53 | 1014.3 |
| 20260508074419 | 12 | 260 | 3.2 | 3.2 | 0.00 | 0.00 | 0.00 | 51 | 1014.1 |
| 20260508073916 | 12 | 307 | 6.4 | 6.4 | 0.00 | 0.00 | 0.00 | 51 | 1014.1 |
| 20260508073413 | 11 | 279 | 3.2 | 4.8 | 0.00 | 0.00 | 0.00 | 51 | 1013.9 |
| 20260508072910 | 11 | 257 | 6.4 | 6.4 | 0.00 | 0.00 | 0.00 | 51 | 1013.9 |
| 20260508072406 | 11 | 250 | 6.4 | 9.7 | 0.00 | 0.00 | 0.00 | 51 | 1013.9 |
| 20260508071903 | 11 | 289 | 4.8 | 4.8 | 0.00 | 0.00 | 0.00 | 52 | 1013.9 |
| 20260508071402 | 11 | 256 | 3.2 | 3.2 | 0.00 | 0.00 | 0.00 | 52 | 1013.8 |
| 20260508070859 | 11 | 233 | 8.0 | 11.3 | 0.00 | 0.00 | 0.00 | 52 | 1013.9 |
| 20260508070357 | 11 | 248 | 4.8 | 4.8 | 0.00 | 0.00 | 0.00 | 52 | 1013.7 |
| 20260508065854 | 11 | 252 | 6.4 | 9.7 | 0.00 | 0.00 | 0.00 | 52 | 1013.8 |
| 20260508065353 | 11 | 213 | 4.8 | 6.4 | 0.00 | 0.00 | 0.00 | 53 | 1013.8 |
| 20260508064850 | 11 | 240 | 3.2 | 4.8 | 0.00 | 0.00 | 0.00 | 52 | 1014.0 |